Walker, Minnesota
Current Conditions -  °F | °C
As of 4:55 PM on Friday 28 Nov 2014 (Local Time) from KY49 Reporting Station
Light Snow Light Snow  
Wind Chill: 14°   Ceiling: 2900
Heat Index: 14°   Visibility: 5mi
Dew Point:   Wind: 3mph
Humidity: 79%   Direction: 100°E
Pressure: 29.79"   Gusts: NA
Location:  47.1°N, 94.59°W
Report Text: KY49 282255Z AUTO 10003KT 5SM -SN BKN029 BKN036 OVC047 M10/M13 A2979 RMK AO2 T11001130
Loading
Personal Weather Stations






























Interactive Weather Map New forecast layout! Learn more

10-Day Weather Forecast

Advertisements
Track Severe Weather on mobile